• Join FlightAware (Why Join?)
  • Login
  • US Flag 
03:23AM EDT


 

Airport Tracker/Info


-or-


 

Live Flight TrackerFlight Track Log ✈ EJM375 ✈ 07-Nov-2013 ✈ KLAX - KMDW

Flight Track Log - Related Links

Times and Time Zones

All times are in EST time to prevent confusion due to time zone crossing. See the EJM375 flight status page for this flight to view local times or setup timezone preferences in your user account.

Time Position Orientation Groundspeed Altitude Reporting Facility
EST Latitude Longitude Course Direction KTS MPH feet Rate Location/Type
08:55PM 33.9333 -118.4333 55° Northeast 176 203 1,800  Level Southern California TRACON
08:56PM 33.9153 -118.5128 255° West 212 244 4,800 2,820 Climbing Los Angeles Center
08:57PM 33.8661 -118.5122 179° South 219 252 8,100 2,640 Climbing Los Angeles Center
08:59PM 33.9067 -118.4533 50° Northeast 256 295 10,300 1,920 Climbing Los Angeles Center
09:00PM 33.9642 -118.3792 47° Northeast 316 364 12,100 1,800 Climbing Los Angeles Center
09:01PM 34.2413 -117.6972 55° Northeast  Level Estimated
09:01PM 34.0192 -118.2825 56° Northeast 342 394 14,100  Level Los Angeles Center
09:02PM 34.0803 -118.1742 56° Northeast 384 442 16,300 2,160 Climbing Los Angeles Center
09:03PM 34.1444 -118.0608 56° Northeast 401 461 18,600 2,100 Climbing Los Angeles Center
09:04PM 34.2103 -117.9444 56° Northeast 413 475 20,700 2,040 Climbing Los Angeles Center
09:05PM 34.2783 -117.8217 56° Northeast 431 496 22,900 2,220 Climbing Los Angeles Center
09:06PM 34.3639 -117.6692 56° Northeast 449 517 25,300 1,860 Climbing Los Angeles Center
09:07PM 34.4275 -117.5594 55° Northeast 460 529 26,800 1,920 Climbing Los Angeles Center
09:08PM 34.5294 -117.4144 49° Northeast 473 544 29,300 2,100 Climbing Los Angeles Center
09:09PM 34.6161 -117.2922 49° Northeast 479 551 31,200 2,040 Climbing Los Angeles Center
09:10PM 34.7019 -117.1700 49° Northeast 481 554 33,600 1,980 Climbing Los Angeles Center
09:11PM 34.7864 -117.0483 50° Northeast 476 548 35,300 1,740 Climbing Los Angeles Center
09:12PM 34.8719 -116.9261 50° Northeast 477 549 37,200 1,740 Climbing Los Angeles Center
09:13PM 34.9739 -116.7792 50° Northeast 476 548 38,900 1,020 Climbing Los Angeles Center
09:14PM 35.0617 -116.6550 49° Northeast 483 556 39,400 480 Climbing Los Angeles Center
09:15PM 35.1503 -116.5250 50° Northeast 495 570 39,900 480 Climbing Los Angeles Center
09:16PM 35.2389 -116.3978 50° Northeast 495 570 40,500 480 Climbing Los Angeles Center
09:17PM 35.3278 -116.2697 50° Northeast 495 570 40,900 240 Climbing Los Angeles Center
09:18PM 35.4508 -116.0856 51° Northeast 500 575 41,100 60 Climbing Los Angeles Center
09:19PM 35.5414 -115.9558 49° Northeast 501 577 41,100  Level Los Angeles Center
09:20PM 35.6069 -115.8125 61° Northeast 499 574 41,100  Level Los Angeles Center
09:21PM 35.6594 -115.6511 68° East 507 583 41,100  Level Los Angeles Center
09:22PM 35.7233 -115.4619 67° East 504 580 41,100  Level Los Angeles Center
09:23PM 35.7764 -115.3025 68° East 506 582 41,100  Level Los Angeles Center
09:25PM 35.8267 -115.1439 69° East 501 577 41,100  Level Los Angeles Center
09:26PM 35.8797 -114.9853 68° East 503 579 41,100  Level Los Angeles Center
09:27PM 35.9311 -114.8253 68° East 505 581 41,100  Level Los Angeles Center
09:28PM 35.9819 -114.6667 68° East 501 577 41,100  Level Los Angeles Center
09:29PM 36.0450 -114.4739 68° East 504 580 41,100  Level Los Angeles Center
09:30PM 36.0956 -114.3111 69° East 508 585 41,100  Level Los Angeles Center
09:31PM 36.1469 -114.1500 68° East 506 582 41,100  Level Los Angeles Center
09:32PM 36.1989 -113.9883 68° East 506 582 41,100  Level Los Angeles Center
09:33PM 36.2506 -113.8256 68° East 507 583 41,100  Level Los Angeles Center
09:34PM 36.3017 -113.6625 69° East 509 586 41,100  Level Los Angeles Center
09:35PM 36.3622 -113.4669 69° East 507 583 41,100  Level Los Angeles Center
09:36PM 36.4125 -113.3050 69° East 505 581 41,100  Level Los Angeles Center
09:37PM 36.4606 -113.1464 69° East 505 581 41,100  Level Los Angeles Center
09:38PM 36.5108 -112.9853 69° East 504 580 41,100  Level Los Angeles Center
09:39PM 36.5597 -112.8222 69° East 506 582 41,100  Level Los Angeles Center
09:40PM 36.6192 -112.6281 69° East 504 580 41,100  Level Los Angeles Center
09:41PM 36.6686 -112.4639 69° East 507 583 41,100  Level Los Angeles Center
09:42PM 36.7172 -112.3025 69° East 504 580 41,100  Level Los Angeles Center
09:43PM 36.7653 -112.1389 70° East 504 580 41,100  Level Los Angeles Center
09:44PM 36.8136 -111.9753 70° East 505 581 41,100  Level Los Angeles Center
09:45PM 36.8619 -111.8108 70° East 506 582 41,100  Level Los Angeles Center
09:46PM 36.9192 -111.6139 70° East 506 582 41,100  Level Los Angeles Center
09:47PM 36.9564 -111.4828 70° East 505 581 41,100  Level Denver Center
09:48PM 37.0044 -111.3181 70° East 506 582 41,100  Level Denver Center
09:49PM 37.0514 -111.1547 70° East 502 578 41,100  Level Denver Center
09:50PM 37.0983 -110.9917 70° East 500 575 41,100  Level Denver Center
09:51PM 37.1456 -110.8275 70° East 502 578 41,100  Level Denver Center
09:52PM 37.1942 -110.6258 73° East 505 581 41,100  Level Denver Center
09:53PM 37.2369 -110.4564 72° East 510 587 41,100  Level Denver Center
09:54PM 37.2775 -110.2869 73° East 509 586 41,100  Level Denver Center
09:55PM 37.3222 -110.1078 73° East 511 588 41,100  Level Denver Center
09:56PM 37.3619 -109.9447 73° East 510 587 41,100  Level Denver Center
09:57PM 37.4075 -109.7528 73° East 512 589 41,100  Level Denver Center
09:58PM 37.4472 -109.5900 73° East 508 585 41,100  Level Denver Center
09:59PM 37.4925 -109.3992 73° East 508 585 41,100  Level Denver Center
10:00PM 37.5325 -109.2336 73° East 514 592 41,100  Level Denver Center
10:01PM 37.5767 -109.0431 74° East 510 587 41,100  Level Denver Center
10:03PM 37.6150 -108.8778 74° East 512 589 41,100  Level Denver Center
10:04PM 37.6594 -108.6842 74° East 513 590 41,100  Level Denver Center
10:05PM 37.6967 -108.5181 74° East 513 590 41,100  Level Denver Center
10:06PM 37.7347 -108.3517 74° East 513 590 41,100  Level Denver Center
10:07PM 37.7781 -108.1589 74° East 512 589 41,100  Level Denver Center
10:08PM 37.8158 -107.9936 74° East 513 590 41,100  Level Denver Center
10:09PM 37.8589 -107.7981 74° East 516 594 41,100  Level Denver Center
10:10PM 37.8956 -107.6317 74° East 513 590 41,100  Level Denver Center
10:11PM 37.9383 -107.4369 74° East 514 592 41,100  Level Denver Center
10:12PM 37.9742 -107.2731 74° East 508 585 41,100  Level Denver Center
10:13PM 38.0158 -107.0753 75° East 507 583 41,100  Level Denver Center
10:14PM 38.0517 -106.9086 75° East 511 588 41,100  Level Denver Center
10:15PM 38.0869 -106.7439 75° East 506 582 41,100  Level Denver Center
10:16PM 38.1281 -106.5500 75° East 511 588 41,100  Level Denver Center
10:17PM 38.1647 -106.3667 76° East 510 587 41,100  Level Denver Center
10:18PM 38.2017 -106.1911 75° East 514 592 41,100  Level Denver Center
10:19PM 38.2361 -106.0228 75° East 515 593 41,100  Level Denver Center
10:20PM 38.2758 -105.8264 75° East 514 592 41,100  Level Denver Center
10:21PM 38.3092 -105.6569 76° East 514 592 41,100 -60 Level Denver Center
10:22PM 38.3453 -105.4767 76° East 516 594 41,000  Descending Denver Center
10:23PM 38.3806 -105.3003 76° East 516 594 41,100  Climbing Denver Center
10:24PM 38.4217 -105.0864 76° East 521 600 41,100  Level Denver Center
10:25PM 38.4569 -104.9114 76° East 516 594 41,100  Level Denver Center
10:26PM 38.4903 -104.7369 76° East 511 588 41,100  Level Denver Center
10:27PM 38.5239 -104.5606 76° East 513 590 41,100  Level Denver Center
10:28PM 38.5572 -104.3833 76° East 516 594 41,100  Level Denver Center
10:29PM 38.5903 -104.2075 76° East 515 593 41,100  Level Denver Center
10:30PM 38.6264 -104.0133 77° East 511 588 41,100  Level Denver Center
10:31PM 38.6633 -103.8122 77° East 518 596 41,100  Level Denver Center
10:32PM 38.6944 -103.6417 77° East 515 593 41,100  Level Denver Center
10:34PM 38.7300 -103.4428 77° East 513 590 41,100  Level Denver Center
10:35PM 38.7572 -103.2872 77° East 516 594 41,100  Level Denver Center
10:36PM 38.7894 -103.1094 77° East 516 594 41,100  Level Denver Center
10:37PM 38.8267 -102.8933 77° East 519 597 41,100  Level Denver Center
10:38PM 38.8542 -102.7322 78° East 520 598 41,100  Level Denver Center
10:39PM 38.8900 -102.5283 77° East 523 602 41,100  Level Denver Center
10:40PM 38.9192 -102.3528 78° East 523 602 41,100  Level Denver Center
10:41PM 38.9539 -102.1492 78° East 523 602 41,100  Level Denver Center
10:42PM 38.9833 -101.9750 78° East 521 600 41,100  Level Denver Center
10:43PM 39.0169 -101.7700 78° East 523 602 41,100  Level Denver Center
10:44PM 39.0469 -101.5886 78° East 523 602 41,100  Level Denver Center
10:45PM 39.0739 -101.4139 79° East 523 602 41,100  Level Denver Center
10:46PM 39.1072 -101.2092 78° East 524 603 41,100  Level Denver Center
10:47PM 39.1342 -101.0344 79° East 523 602 41,100  Level Denver Center
10:48PM 39.1611 -100.8586 79° East 524 603 41,100  Level Denver Center
10:49PM 39.1936 -100.6550 78° East 522 601 41,100  Level Denver Center
10:50PM 39.2206 -100.4769 79° East 527 606 41,100  Level Denver Center
10:51PM 39.2517 -100.2725 79° East 524 603 41,100  Level Denver Center
10:52PM 39.2772 -100.0956 79° East 525 604 41,100  Level Denver Center
10:53PM 39.3083 -99.8872 79° East 529 609 41,100  Level Denver Center
10:54PM 39.3339 -99.7069 80° East 532 612 41,100  Level Denver Center
10:55PM 39.3731 -99.4361 79° East 535 616 41,100  Level Denver Center
10:56PM 39.3986 -99.2561 80° East 532 612 41,100  Level Denver Center
10:58PM 39.4281 -99.0431 80° East 538 619 41,100  Level Denver Center
10:59PM 39.4550 -98.8506 80° East 536 617 41,100  Level Denver Center
11:00PM 39.4861 -98.6225 80° East 536 617 41,100  Level Kansas City Center
11:01PM 39.5072 -98.4642 80° East 536 617 41,100  Level Kansas City Center
11:02PM 39.5328 -98.2719 80° East 539 620 41,100  Level Kansas City Center
11:03PM 39.5575 -98.0817 80° East 539 620 41,100  Level Kansas City Center
11:04PM 39.5864 -97.8603 80° East 541 623 41,100  Level Kansas City Center
11:05PM 39.6103 -97.6700 81° East 538 619 41,100  Level Kansas City Center
11:06PM 39.6344 -97.4803 81° East 536 617 41,100  Level Kansas City Center
11:07PM 39.6569 -97.2906 81° East 534 615 41,100  Level Kansas City Center
11:08PM 39.6836 -97.0847 80° East 540 621 41,100  Level Kansas City Center
11:09PM 39.7075 -96.8894 81° East 546 628 41,100  Level Kansas City Center
11:10PM 39.7281 -96.7075 82° East 545 627 41,100  Level Kansas City Center
11:11PM 39.7539 -96.4867 81° East 551 634 41,100  Level Kansas City Center
11:12PM 39.7761 -96.2978 81° East 552 635 41,100  Level Kansas City Center
11:13PM 39.7972 -96.1069 82° East 555 639 41,100  Level Kansas City Center
11:14PM 39.8225 -95.8836 82° East 556 640 41,100  Level Kansas City Center
11:15PM 39.8422 -95.6931 82° East 555 639 41,100  Level Kansas City Center
11:16PM 39.8625 -95.5022 82° East 554 638 41,100  Level Kansas City Center
11:17PM 39.8858 -95.2806 82° East 552 635 41,100  Level Kansas City Center
11:18PM 39.9056 -95.0878 82° East 551 634 41,100  Level Kansas City Center
11:19PM 39.9253 -94.8997 82° East 553 636 41,100  Level Kansas City Center
11:20PM 39.9481 -94.6772 82° East 552 635 41,100  Level Kansas City Center
11:21PM 39.9661 -94.4867 83° East 553 636 41,100  Level Kansas City Center
11:22PM 39.9833 -94.2956 83° East 553 636 41,100  Level Kansas City Center
11:23PM 40.0044 -94.0803 83° East 552 635 41,100  Level Kansas City Center
11:24PM 40.0256 -93.9053 81° East 556 640 41,100  Level Kansas City Center
11:25PM 40.0656 -93.6744 77° East 551 634 41,100  Level Kansas City Center
11:26PM 40.1022 -93.4828 76° East 549 632 41,100  Level Kansas City Center
11:27PM 40.1553 -93.2992 69° East 546 628 41,100  Level Kansas City Center
11:28PM 40.2083 -93.1303 68° East 543 625 41,100  Level Kansas City Center
11:29PM 40.2717 -92.9236 68° East 546 628 41,100  Level Kansas City Center
11:30PM 40.3253 -92.7472 68° East 546 628 41,100  Level Kansas City Center
11:31PM 40.3789 -92.5544 70° East 547 629 41,100  Level Kansas City Center
11:32PM 40.4386 -92.3700 67° East 548 631 41,100  Level Kansas City Center
11:33PM 40.4947 -92.1797 69° East 548 631 41,100  Level Kansas City Center
11:34PM 40.5481 -91.9939 69° East 547 629 41,100 -60 Level Kansas City Center
11:35PM 40.5986 -91.8153 70° East 539 620 41,000 -60 Descending Kansas City Center
11:36PM 40.6536 -91.6325 68° East 535 616 41,000 -600 Level Kansas City Center
11:37PM 40.7064 -91.4503 69° East 534 615 39,900 -1,560 Descending Kansas City Center
11:38PM 40.7589 -91.2642 70° East 538 619 37,900 -1,980 Descending Kansas City Center
11:39PM 40.8097 -91.0836 70° East 532 612 35,900 -1,920 Descending Kansas City Center
11:40PM 40.8614 -90.9033 69° East 527 606 34,000 -1,740 Descending Kansas City Center
11:41PM 40.9122 -90.7189 70° East 530 610 32,500 -1,680 Descending Kansas City Center
11:42PM 40.9611 -90.5417 70° East 518 596 30,700 -2,280 Descending Kansas City Center
11:44PM 41.0297 -90.2922 70° East 518 596 27,200 -2,220 Descending Chicago Center
11:45PM 41.0761 -90.1211 70° East 493 567 25,500 -1,800 Descending Chicago Center
11:46PM 41.1206 -89.9567 70° East 473 544 23,600 -1,740 Descending Chicago Center
11:47PM 41.1636 -89.7981 70° East 458 527 22,100 -1,500 Descending Chicago Center
11:48PM 41.2031 -89.6417 71° East 447 514 20,600 -1,380 Descending Chicago Center
11:49PM 41.2242 -89.4775 80° East 447 514 19,300 -1,380 Descending Chicago Center
11:50PM 41.2494 -89.3194 78° East 440 506 17,900 -1,200 Descending Chicago Center
11:51PM 41.2811 -89.1597 75° East 422 486 16,900 -1,140 Descending Chicago Center
11:52PM 41.3092 -89.0164 75° East 407 468 15,600 -1,380 Descending Chicago Center
11:53PM 41.3400 -88.8786 73° East 396 456 14,200 -1,560 Descending Chicago Center
11:54PM 41.3714 -88.7453 73° East 384 442 12,500 -1,860 Descending Chicago Center
11:55PM 41.4047 -88.6128 71° East 380 437 10,500 -1,260 Descending Chicago Center
11:56PM 41.4531 -88.5017 60° Northeast 348 400 10,000 -300 Descending Chicago Center
11:57PM 41.4789 -88.3719 75° East 359 413 10,000 -240 Level Chicago Center
11:58PM 41.5000 -88.2550 76° East 318 366 9,600 -1,020 Descending Chicago Center
11:59PM 41.5206 -88.1467 76° East 299 344 8,000 -1,680 Descending Chicago Center
12:00AM 41.5431 -88.0386 74° East 299 344 6,300 -1,620 Descending Chicago Center
12:01AM 41.5639 -87.9350 75° East 292 336 4,800 -1,500 Descending Chicago Center
12:02AM 41.5864 -87.8364 73° East 284 327 3,300 -1,200 Descending Chicago Center
12:03AM 41.6081 -87.7406 73° East 277 319 2,500 -420 Descending Chicago Center
12:04AM 41.6389 -87.6567 64° Northeast 261 300 2,500  Level Chicago Center
12:05AM 41.6822 -87.6350 20° North 211 243 2,500  Level Chicago Center
12:06AM 41.7222 -87.6578 337° Northwest 177 204 2,500 -480 Level Chicago Center
12:07AM 41.7494 -87.7025 309° West 144 166 1,600 -780 Descending Chicago Center
12:08AM 41.7714 -87.7339 313° West 128 147 1,000 -600 Descending Chicago Center